Time;durP1;ratioP1;P1;durP2;ratioP2;P2;SDS_P1;SDS_P2;PMS_P1;PMS_P2;Temp;Humidity;BMP_temperature;BMP_pressure;BME280_temperature;BME280_humidity;BME280_pressure;Samples;Min_cycle;Max_cycle;Signal;HPM_P1;HPM_P2
2023/12/01 00:00:50;;;;;;;;;;;;;;;;;;2214310;59;1932;-80
2023/12/01 00:03:23;;;;;;;;;;;;;;;;;;2216034;59;2295;-78
2023/12/01 00:05:59;;;;;;;;;;;;;;;;;;2218406;66;1222;-78
2023/12/01 00:08:33;;;;;;;;;;;;;;;;;;2215739;59;1346;-78
2023/12/01 00:11:12;;;;;;;;;;;;;;;;;;2215897;67;973;-78
2023/12/01 00:13:51;;;;;;;;;;;;;;;;;;2212754;67;1100;-78
2023/12/01 00:16:22;;;;;;;;;;;;;;;;;;2215853;59;1615;-78
2023/12/01 00:18:57;;;;;;;;;;;;;;;;;;2201154;59;1250;-78
2023/12/01 00:21:30;;;;;;;;;;;;;;;;;;2212874;59;1984;-79
2023/12/01 00:24:04;;;;;;;;;;;;;;;;;;2216261;66;1141;-79
2023/12/01 00:26:37;;;;;;;;;;;;;;;;;;2224938;66;1204;-79
2023/12/01 00:29:13;;;;;;;;;;;;;;;;;;2225007;59;2173;-79
2023/12/01 00:31:47;;;;;;;;;;;;;;;;;;2217217;59;1101;-78
2023/12/01 00:34:17;;;;;;;;;;;;;;;;;;2216813;59;1074;-78
2023/12/01 00:36:51;;;;;;;;;;;;;;;;;;2199718;66;1203;-78
2023/12/01 00:39:24;;;;;;;;;;;;;;;;;;2217705;58;1276;-78
2023/12/01 00:41:54;;;;;;;;;;;;;;;;;;2212103;59;2513;-79
2023/12/01 00:44:25;;;;;;;;;;;;;;;;;;2216136;66;1058;-78
2023/12/01 00:47:03;;;;;;;;;;;;;;;;;;2215190;66;1017;-78
2023/12/01 00:49:39;;;;;;;;;;;;;;;;;;2213736;59;1387;-78
2023/12/01 00:52:10;;;;;;;;;;;;;;;;;;2215829;59;1705;-79
2023/12/01 00:54:43;;;;;;;;;;;;;;;;;;2215460;66;1198;-78
2023/12/01 00:57:19;;;;;;;;;;;;;;;;;;2216041;59;1245;-78
2023/12/01 00:59:52;;;;;;;;;;;;;;;;;;2215790;66;1146;-79
2023/12/01 01:02:29;;;;;;;;;;;;;;;;;;2215917;59;1911;-78
2023/12/01 01:05:00;;;;;;;;;;;;;;;;;;2215890;66;1025;-78
2023/12/01 01:07:30;;;;;;;;;;;;;;;;;;2212832;66;1581;-78
2023/12/01 01:10:03;;;;;;;;;;;;;;;;;;2215663;59;1694;-78
2023/12/01 01:12:34;;;;;;;;;;;;;;;;;;2217480;66;1351;-81
2023/12/01 01:15:07;;;;;;;;;;;;;;;;;;2216124;59;1300;-78
2023/12/01 01:17:40;;;;;;;;;;;;;;;;;;2215233;59;1206;-78
2023/12/01 01:20:20;;;;;;;;;;;;;;;;;;2213213;67;1260;-78
2023/12/01 01:22:59;;;;;;;;;;;;;;;;;;2217913;66;1039;-78
2023/12/01 01:25:32;;;;;;;;;;;;;;;;;;2215318;66;1276;-78
2023/12/01 01:28:09;;;;;;;;;;;;;;;;;;2213147;59;2945;-78
2023/12/01 01:30:42;;;;;;;;;;;;;;;;;;2215320;59;1078;-78
2023/12/01 01:33:16;;;;;;;;;;;;;;;;;;2216022;59;1026;-78
2023/12/01 01:35:57;;;;;;;;;;;;;;;;;;2200605;66;1827;-78
2023/12/01 01:38:27;;;;;;;;;;;;;;;;;;2215461;66;1317;-78
2023/12/01 01:40:57;;;;;;;;;;;;;;;;;;2215513;66;1904;-78
2023/12/01 01:43:28;;;;;;;;;;;;;;;;;;2215746;59;1372;-78
2023/12/01 01:46:04;;;;;;;;;;;;;;;;;;2213060;67;1598;-78
2023/12/01 01:48:38;;;;;;;;;;;;;;;;;;2215428;59;1306;-78
2023/12/01 01:51:09;;;;;;;;;;;;;;;;;;2215139;66;1002;-78
2023/12/01 01:53:43;;;;;;;;;;;;;;;;;;2212708;59;1320;-78
2023/12/01 01:56:17;;;;;;;;;;;;;;;;;;2215227;66;994;-78
2023/12/01 01:58:52;;;;;;;;;;;;;;;;;;2215056;66;1293;-78
2023/12/01 02:01:26;;;;;;;;;;;;;;;;;;2215337;60;1948;-78
2023/12/01 02:03:57;;;;;;;;;;;;;;;;;;2214502;60;1342;-78
2023/12/01 02:06:37;;;;;;;;;;;;;;;;;;2215228;66;1341;-78
2023/12/01 02:09:15;;;;;;;;;;;;;;;;;;2215564;59;1658;-78
2023/12/01 02:11:51;;;;;;;;;;;;;;;;;;2216063;66;1126;-78
2023/12/01 02:14:22;;;;;;;;;;;;;;;;;;2217610;60;1204;-78
2023/12/01 02:16:53;;;;;;;;;;;;;;;;;;2214168;66;971;-78
2023/12/01 02:19:25;;;;;;;;;;;;;;;;;;2214190;67;1656;-78
2023/12/01 02:22:01;;;;;;;;;;;;;;;;;;2214613;66;1973;-78
2023/12/01 02:24:32;;;;;;;;;;;;;;;;;;2215207;66;1081;-78
2023/12/01 02:27:05;;;;;;;;;;;;;;;;;;2213370;59;1157;-78
2023/12/01 02:29:42;;;;;;;;;;;;;;;;;;2214001;60;1144;-78
2023/12/01 02:32:14;;;;;;;;;;;;;;;;;;2205543;59;1481;-78
2023/12/01 02:34:47;;;;;;;;;;;;;;;;;;2214469;66;1247;-80
2023/12/01 02:37:18;;;;;;;;;;;;;;;;;;2214644;66;1247;-78
2023/12/01 02:39:54;;;;;;;;;;;;;;;;;;2214759;59;1371;-78
2023/12/01 02:42:27;;;;;;;;;;;;;;;;;;2215557;59;2028;-78
2023/12/01 02:45:00;;;;;;;;;;;;;;;;;;2205223;59;1447;-79
2023/12/01 02:47:33;;;;;;;;;;;;;;;;;;2213089;67;1265;-79
2023/12/01 02:50:09;;;;;;;;;;;;;;;;;;2214930;66;983;-78
2023/12/01 02:52:42;;;;;;;;;;;;;;;;;;2205308;66;1311;-78
2023/12/01 02:55:13;;;;;;;;;;;;;;;;;;2205072;66;1601;-79
2023/12/01 02:57:54;;;;;;;;;;;;;;;;;;2214106;59;1180;-79
2023/12/01 03:00:30;;;;;;;;;;;;;;;;;;2215127;59;1383;-79
2023/12/01 03:03:04;;;;;;;;;;;;;;;;;;2214076;66;2876;-78
2023/12/01 03:05:40;;;;;;;;;;;;;;;;;;2214557;66;1038;-78
2023/12/01 03:08:11;;;;;;;;;;;;;;;;;;2213706;66;1459;-78
2023/12/01 03:10:41;;;;;;;;;;;;;;;;;;2213630;59;1253;-78
2023/12/01 03:13:22;;;;;;;;;;;;;;;;;;2213750;66;1132;-78
2023/12/01 03:16:01;;;;;;;;;;;;;;;;;;2213850;66;1011;-78
2023/12/01 03:18:35;;;;;;;;;;;;;;;;;;2199240;59;1270;-78
2023/12/01 03:21:15;;;;;;;;;;;;;;;;;;2213958;66;1941;-78
2023/12/01 03:23:49;;;;;;;;;;;;;;;;;;2199329;66;1139;-78
2023/12/01 03:26:20;;;;;;;;;;;;;;;;;;2196585;67;1049;-78
2023/12/01 03:28:50;;;;;;;;;;;;;;;;;;2212773;59;1999;-78
2023/12/01 03:31:24;;;;;;;;;;;;;;;;;;2213446;59;1244;-78
2023/12/01 03:33:56;;;;;;;;;;;;;;;;;;2215146;59;1093;-78
2023/12/01 03:36:33;;;;;;;;;;;;;;;;;;2215543;66;1597;-78
2023/12/01 03:39:04;;;;;;;;;;;;;;;;;;2216804;66;1241;-78
2023/12/01 03:41:39;;;;;;;;;;;;;;;;;;2215923;59;1913;-78
2023/12/01 03:44:10;;;;;;;;;;;;;;;;;;2215034;66;1585;-78
2023/12/01 03:46:40;;;;;;;;;;;;;;;;;;2219218;59;1160;-79
2023/12/01 03:49:11;;;;;;;;;;;;;;;;;;2214860;66;1349;-78
2023/12/01 03:52:02;;;;;;;;;;;;;;;;;;2214457;66;1524;-80
2023/12/01 03:54:37;;;;;;;;;;;;;;;;;;2216934;59;962;-78
2023/12/01 03:57:19;;;;;;;;;;;;;;;;;;2214754;59;1146;-78
2023/12/01 03:59:59;;;;;;;;;;;;;;;;;;2214669;66;1110;-78
2023/12/01 04:02:33;;;;;;;;;;;;;;;;;;2214917;66;1919;-78
2023/12/01 04:05:07;;;;;;;;;;;;;;;;;;2214439;66;1127;-78
2023/12/01 04:07:38;;;;;;;;;;;;;;;;;;2216935;59;1354;-80
2023/12/01 04:10:10;;;;;;;;;;;;;;;;;;2214507;66;973;-78
2023/12/01 04:12:47;;;;;;;;;;;;;;;;;;2215467;66;1213;-78
2023/12/01 04:15:26;;;;;;;;;;;;;;;;;;2215155;66;1150;-78
2023/12/01 04:18:06;;;;;;;;;;;;;;;;;;2198767;67;1262;-78
2023/12/01 04:20:39;;;;;;;;;;;;;;;;;;2214692;66;2336;-78
2023/12/01 04:23:10;;;;;;;;;;;;;;;;;;2214908;66;1070;-79
2023/12/01 04:25:46;;;;;;;;;;;;;;;;;;2214805;60;1074;-80
2023/12/01 04:28:17;;;;;;;;;;;;;;;;;;2214753;59;2122;-78
2023/12/01 04:30:53;;;;;;;;;;;;;;;;;;2215147;66;1382;-78
2023/12/01 04:33:37;;;;;;;;;;;;;;;;;;2200518;59;1305;-78
2023/12/01 04:36:18;;;;;;;;;;;;;;;;;;2214376;59;1139;-78
2023/12/01 04:38:50;;;;;;;;;;;;;;;;;;2214191;59;1280;-78
2023/12/01 04:41:23;;;;;;;;;;;;;;;;;;2213760;59;1930;-78
2023/12/01 04:43:53;;;;;;;;;;;;;;;;;;2214538;59;1349;-78
2023/12/01 04:46:27;;;;;;;;;;;;;;;;;;2214720;66;1320;-78
2023/12/01 04:48:59;;;;;;;;;;;;;;;;;;2209641;66;1816;-78
2023/12/01 04:51:33;;;;;;;;;;;;;;;;;;2214673;59;1148;-78
2023/12/01 04:54:07;;;;;;;;;;;;;;;;;;2209816;67;1404;-78
2023/12/01 04:56:37;;;;;;;;;;;;;;;;;;2214631;59;1469;-79
2023/12/01 04:59:07;;;;;;;;;;;;;;;;;;2214209;66;1221;-78
2023/12/01 05:01:40;;;;;;;;;;;;;;;;;;2214611;59;1944;-78
2023/12/01 05:04:20;;;;;;;;;;;;;;;;;;2213680;66;1147;-78
2023/12/01 05:06:56;;;;;;;;;;;;;;;;;;2214159;66;1265;-79
2023/12/01 05:09:30;;;;;;;;;;;;;;;;;;2209447;66;1205;-78
2023/12/01 05:12:00;;;;;;;;;;;;;;;;;;2213449;66;1174;-78
2023/12/01 05:14:34;;;;;;;;;;;;;;;;;;2214981;59;1005;-78
2023/12/01 05:17:04;;;;;;;;;;;;;;;;;;2214982;66;1201;-78
2023/12/01 05:19:35;;;;;;;;;;;;;;;;;;2215233;66;1191;-78
2023/12/01 05:22:08;;;;;;;;;;;;;;;;;;2215215;66;2052;-79
2023/12/01 05:24:41;;;;;;;;;;;;;;;;;;2215657;59;1094;-78
2023/12/01 05:27:12;;;;;;;;;;;;;;;;;;2214766;66;1249;-78
2023/12/01 05:29:48;;;;;;;;;;;;;;;;;;2215576;59;2197;-79
2023/12/01 05:32:19;;;;;;;;;;;;;;;;;;2213973;59;1409;-78
2023/12/01 05:34:49;;;;;;;;;;;;;;;;;;2215365;66;1248;-78
2023/12/01 05:37:25;;;;;;;;;;;;;;;;;;2214566;66;1458;-78
2023/12/01 05:39:55;;;;;;;;;;;;;;;;;;2214774;59;1229;-78
2023/12/01 05:42:28;;;;;;;;;;;;;;;;;;2215471;59;1931;-78
2023/12/01 05:45:01;;;;;;;;;;;;;;;;;;2214233;59;1603;-78
2023/12/01 05:47:32;;;;;;;;;;;;;;;;;;2215228;66;1158;-78
2023/12/01 05:50:08;;;;;;;;;;;;;;;;;;2215093;66;1712;-78
2023/12/01 05:52:48;;;;;;;;;;;;;;;;;;2204988;59;1354;-79
2023/12/01 05:55:20;;;;;;;;;;;;;;;;;;2214639;67;1082;-80
2023/12/01 05:57:51;;;;;;;;;;;;;;;;;;2214085;59;1345;-78
2023/12/01 06:00:30;;;;;;;;;;;;;;;;;;2214905;59;1128;-78
2023/12/01 06:03:06;;;;;;;;;;;;;;;;;;2213947;66;1996;-79
2023/12/01 06:05:46;;;;;;;;;;;;;;;;;;2214012;66;1158;-78
2023/12/01 06:08:16;;;;;;;;;;;;;;;;;;2215942;66;1726;-78
2023/12/01 06:10:47;;;;;;;;;;;;;;;;;;2207070;66;1425;-78
2023/12/01 06:13:17;;;;;;;;;;;;;;;;;;2201635;66;1194;-78
2023/12/01 06:15:48;;;;;;;;;;;;;;;;;;2202208;59;1856;-78
2023/12/01 06:18:18;;;;;;;;;;;;;;;;;;2215033;59;1242;-79
2023/12/01 06:20:54;;;;;;;;;;;;;;;;;;2216080;67;1924;-79
2023/12/01 06:23:25;;;;;;;;;;;;;;;;;;2200593;67;1236;-78
2023/12/01 06:25:58;;;;;;;;;;;;;;;;;;2215438;66;1244;-79
2023/12/01 06:28:33;;;;;;;;;;;;;;;;;;2215506;59;1293;-78
2023/12/01 06:31:05;;;;;;;;;;;;;;;;;;2214200;59;2541;-79
2023/12/01 06:33:37;;;;;;;;;;;;;;;;;;2215219;59;1594;-78
2023/12/01 06:36:08;;;;;;;;;;;;;;;;;;2215062;59;1838;-77
2023/12/01 06:38:41;;;;;;;;;;;;;;;;;;2216945;59;1294;-78
2023/12/01 06:41:11;;;;;;;;;;;;;;;;;;2215413;59;1938;-78
2023/12/01 06:43:48;;;;;;;;;;;;;;;;;;2215024;66;1568;-78
2023/12/01 06:46:19;;;;;;;;;;;;;;;;;;2214575;66;1280;-79
2023/12/01 06:48:49;;;;;;;;;;;;;;;;;;2215217;59;1503;-78
2023/12/01 06:51:22;;;;;;;;;;;;;;;;;;2214808;66;1210;-78
2023/12/01 06:53:58;;;;;;;;;;;;;;;;;;2214813;59;1142;-78
2023/12/01 06:56:32;;;;;;;;;;;;;;;;;;2215936;66;1129;-78
2023/12/01 06:59:23;;;;;;;;;;;;;;;;;;2214616;66;1251;-79
2023/12/01 07:01:56;;;;;;;;;;;;;;;;;;2208702;59;1933;-78
2023/12/01 07:04:32;;;;;;;;;;;;;;;;;;2199027;59;1276;-79
2023/12/01 07:07:06;;;;;;;;;;;;;;;;;;2214643;66;1259;-79
2023/12/01 07:09:48;;;;;;;;;;;;;;;;;;2214818;59;1147;-78
2023/12/01 07:12:21;;;;;;;;;;;;;;;;;;2213157;60;1715;-78
2023/12/01 07:14:55;;;;;;;;;;;;;;;;;;2215498;59;1241;-79
2023/12/01 07:17:28;;;;;;;;;;;;;;;;;;2210151;66;1283;-78
2023/12/01 07:20:13;;;;;;;;;;;;;;;;;;2215302;66;1400;-78
2023/12/01 07:22:45;;;;;;;;;;;;;;;;;;2211991;67;1927;-80
2023/12/01 07:25:21;;;;;;;;;;;;;;;;;;2212858;66;1263;-78
2023/12/01 07:27:59;;;;;;;;;;;;;;;;;;2211796;59;2039;-78
2023/12/01 07:30:33;;;;;;;;;;;;;;;;;;2214526;59;1031;-79
2023/12/01 07:33:07;;;;;;;;;;;;;;;;;;2214931;59;1365;-78
2023/12/01 07:35:38;;;;;;;;;;;;;;;;;;2214925;59;1696;-79
2023/12/01 07:38:11;;;;;;;;;;;;;;;;;;2214463;66;1434;-79
2023/12/01 07:40:42;;;;;;;;;;;;;;;;;;2215361;59;1994;-78
2023/12/01 07:43:16;;;;;;;;;;;;;;;;;;2213868;66;984;-78
2023/12/01 07:45:48;;;;;;;;;;;;;;;;;;2216006;66;1416;-78
2023/12/01 07:48:22;;;;;;;;;;;;;;;;;;2213885;66;1315;-78
2023/12/01 07:50:58;;;;;;;;;;;;;;;;;;2214195;59;1120;-79
2023/12/01 07:53:34;;;;;;;;;;;;;;;;;;2215215;66;1632;-78
2023/12/01 07:56:21;;;;;;;;;;;;;;;;;;2214180;66;1041;-78
2023/12/01 07:58:52;;;;;;;;;;;;;;;;;;2215662;66;1301;-78
2023/12/01 08:01:22;;;;;;;;;;;;;;;;;;2214272;59;1997;-78
2023/12/01 08:03:55;;;;;;;;;;;;;;;;;;2215043;66;1175;-78
2023/12/01 08:06:31;;;;;;;;;;;;;;;;;;2213508;66;1256;-78
2023/12/01 08:09:01;;;;;;;;;;;;;;;;;;2214962;66;1154;-80
2023/12/01 08:11:32;;;;;;;;;;;;;;;;;;2214499;66;988;-78
2023/12/01 08:14:03;;;;;;;;;;;;;;;;;;2216180;59;1310;-78
2023/12/01 08:16:36;;;;;;;;;;;;;;;;;;2214335;66;1186;-79
2023/12/01 08:19:10;;;;;;;;;;;;;;;;;;2215923;66;1717;-78
2023/12/01 08:21:40;;;;;;;;;;;;;;;;;;2214451;66;1931;-78
2023/12/01 08:24:13;;;;;;;;;;;;;;;;;;2214804;59;1351;-78
2023/12/01 08:26:49;;;;;;;;;;;;;;;;;;2214858;59;1283;-78
2023/12/01 08:29:20;;;;;;;;;;;;;;;;;;2211080;66;2418;-78
2023/12/01 08:31:50;;;;;;;;;;;;;;;;;;2216028;59;1224;-78
2023/12/01 08:34:25;;;;;;;;;;;;;;;;;;2213799;66;1044;-78
2023/12/01 08:36:55;;;;;;;;;;;;;;;;;;2216105;59;1359;-78
2023/12/01 08:39:26;;;;;;;;;;;;;;;;;;2213478;66;1596;-78
2023/12/01 08:41:59;;;;;;;;;;;;;;;;;;2215796;59;1988;-78
2023/12/01 08:44:35;;;;;;;;;;;;;;;;;;2214166;59;1459;-78
2023/12/01 08:47:09;;;;;;;;;;;;;;;;;;2211381;67;1367;-78
2023/12/01 08:49:40;;;;;;;;;;;;;;;;;;2212926;59;1225;-78
2023/12/01 08:52:10;;;;;;;;;;;;;;;;;;2215576;66;1362;-78
2023/12/01 08:54:47;;;;;;;;;;;;;;;;;;2215129;59;1075;-79
2023/12/01 08:57:17;;;;;;;;;;;;;;;;;;2212964;58;1917;-79
2023/12/01 08:59:52;;;;;;;;;;;;;;;;;;2218018;58;1383;-78
2023/12/01 09:02:23;;;;;;;;;;;;;;;;;;2212233;59;1935;-78
2023/12/01 09:04:56;;;;;;;;;;;;;;;;;;2214891;66;1173;-78
2023/12/01 09:07:26;;;;;;;;;;;;;;;;;;2214254;59;1371;-79
2023/12/01 09:10:00;;;;;;;;;;;;;;;;;;2215312;66;1599;-78
2023/12/01 09:12:30;;;;;;;;;;;;;;;;;;2213799;66;973;-79
2023/12/01 09:15:01;;;;;;;;;;;;;;;;;;2215739;59;1221;-81
2023/12/01 09:17:34;;;;;;;;;;;;;;;;;;2214792;66;1230;-78
2023/12/01 09:20:12;;;;;;;;;;;;;;;;;;2211767;66;1476;-78
2023/12/01 09:22:43;;;;;;;;;;;;;;;;;;2215757;59;1994;-78
2023/12/01 09:25:26;;;;;;;;;;;;;;;;;;2215245;60;1078;-79
2023/12/01 09:27:56;;;;;;;;;;;;;;;;;;2212947;59;2311;-79
2023/12/01 09:30:27;;;;;;;;;;;;;;;;;;2214815;59;1039;-78
2023/12/01 09:32:58;;;;;;;;;;;;;;;;;;2216765;59;1387;-78
2023/12/01 09:35:34;;;;;;;;;;;;;;;;;;2215961;66;1303;-78
2023/12/01 09:38:11;;;;;;;;;;;;;;;;;;2212955;66;1311;-78
2023/12/01 09:40:49;;;;;;;;;;;;;;;;;;2215360;66;1367;-78
2023/12/01 09:43:23;;;;;;;;;;;;;;;;;;2213775;66;1229;-78
2023/12/01 09:45:56;;;;;;;;;;;;;;;;;;2217347;66;1105;-79
2023/12/01 09:48:34;;;;;;;;;;;;;;;;;;2216729;66;1273;-79
2023/12/01 09:51:05;;;;;;;;;;;;;;;;;;2212944;66;1113;-79
2023/12/01 09:53:39;;;;;;;;;;;;;;;;;;2213184;66;1155;-79
2023/12/01 09:56:10;;;;;;;;;;;;;;;;;;2215461;66;1440;-78
2023/12/01 09:58:42;;;;;;;;;;;;;;;;;;2216330;59;1294;-79
2023/12/01 10:01:15;;;;;;;;;;;;;;;;;;2215682;66;1929;-79
2023/12/01 10:03:49;;;;;;;;;;;;;;;;;;2215984;59;2667;-78
2023/12/01 10:06:19;;;;;;;;;;;;;;;;;;2210578;67;1199;-80
2023/12/01 10:08:51;;;;;;;;;;;;;;;;;;2214596;60;1331;-78
2023/12/01 10:11:25;;;;;;;;;;;;;;;;;;2214445;66;1774;-78
2023/12/01 10:13:59;;;;;;;;;;;;;;;;;;2214359;66;1437;-79
2023/12/01 10:16:34;;;;;;;;;;;;;;;;;;2213401;66;1099;-78
2023/12/01 10:19:05;;;;;;;;;;;;;;;;;;2213992;66;1518;-78
2023/12/01 10:21:49;;;;;;;;;;;;;;;;;;2198935;67;1988;-79
2023/12/01 10:24:21;;;;;;;;;;;;;;;;;;2214599;66;1398;-78
2023/12/01 10:26:55;;;;;;;;;;;;;;;;;;2214466;66;1280;-80
2023/12/01 10:29:28;;;;;;;;;;;;;;;;;;2214967;59;2235;-79
2023/12/01 10:32:00;;;;;;;;;;;;;;;;;;2214519;59;1273;-78
2023/12/01 10:34:30;;;;;;;;;;;;;;;;;;2214332;66;1395;-78
2023/12/01 10:37:01;;;;;;;;;;;;;;;;;;2198553;66;1150;-78
2023/12/01 10:39:35;;;;;;;;;;;;;;;;;;2217201;66;1243;-78
2023/12/01 10:42:20;;;;;;;;;;;;;;;;;;2220805;59;1918;-78
2023/12/01 10:44:58;;;;;;;;;;;;;;;;;;2220555;66;1122;-78
2023/12/01 10:47:29;;;;;;;;;;;;;;;;;;2219692;66;1499;-78
2023/12/01 10:50:12;;;;;;;;;;;;;;;;;;;;;
2023/12/01 10:52:48;;;;;;;;;;;;;;;;;;2214639;66;1037;-78
2023/12/01 10:55:19;;;;;;;;;;;;;;;;;;2214823;66;1294;-78
2023/12/01 10:57:51;;;;;;;;;;;;;;;;;;2216824;66;1214;-79
2023/12/01 11:00:31;;;;;;;;;;;;;;;;;;2213539;66;1039;-79
2023/12/01 11:03:03;;;;;;;;;;;;;;;;;;2215316;66;1930;-79
2023/12/01 11:05:34;;;;;;;;;;;;;;;;;;2213815;66;1162;-79
2023/12/01 11:08:31;;;;;;;;;;;;;;;;;;2213818;66;1270;-81
2023/12/01 11:11:01;;;;;;;;;;;;;;;;;;2196329;66;1417;-78
2023/12/01 11:13:50;;;;;;;;;;;;;;;;;;2213379;66;1072;-78
2023/12/01 11:16:27;;;;;;;;;;;;;;;;;;2213631;60;950;-78
2023/12/01 11:18:58;;;;;;;;;;;;;;;;;;2214171;66;1210;-78
2023/12/01 11:21:35;;;;;;;;;;;;;;;;;;2213019;59;1925;-78
2023/12/01 11:24:31;;;;;;;;;;;;;;;;;;2214600;66;1141;-79
2023/12/01 11:27:05;;;;;;;;;;;;;;;;;;2214139;66;1153;-79
2023/12/01 11:29:39;;;;;;;;;;;;;;;;;;2214349;59;1981;-79
2023/12/01 11:32:12;;;;;;;;;;;;;;;;;;2215004;59;1235;-78
2023/12/01 11:35:02;;;;;;;;;;;;;;;;;;2198407;66;1293;-79
2023/12/01 11:37:51;;;;;;;;;;;;;;;;;;2213683;66;1214;-78
2023/12/01 11:40:26;;;;;;;;;;;;;;;;;;2214165;59;1636;-78
2023/12/01 11:42:57;;;;;;;;;;;;;;;;;;2214927;66;1945;-78
2023/12/01 11:45:44;;;;;;;;;;;;;;;;;;2214043;59;1305;-78
2023/12/01 11:48:14;;;;;;;;;;;;;;;;;;2215262;66;1402;-78
2023/12/01 11:50:47;;;;;;;;;;;;;;;;;;2200891;59;1508;-79
2023/12/01 11:53:18;;;;;;;;;;;;;;;;;;2215920;59;1991;-79
2023/12/01 11:55:57;;;;;;;;;;;;;;;;;;2214866;59;1606;-79
2023/12/01 11:58:28;;;;;;;;;;;;;;;;;;2212974;59;1321;-78
2023/12/01 12:00:58;;;;;;;;;;;;;;;;;;2215124;66;1932;-78
2023/12/01 12:03:29;;;;;;;;;;;;;;;;;;2213352;59;2378;-78
2023/12/01 12:05:59;;;;;;;;;;;;;;;;;;2214525;66;1106;-78
2023/12/01 12:08:30;;;;;;;;;;;;;;;;;;2212601;66;1234;-79
2023/12/01 12:11:06;;;;;;;;;;;;;;;;;;2213786;60;1216;-79
2023/12/01 12:13:37;;;;;;;;;;;;;;;;;;2203137;67;1653;-78
2023/12/01 12:16:11;;;;;;;;;;;;;;;;;;2214129;59;1288;-78
2023/12/01 12:18:49;;;;;;;;;;;;;;;;;;2213759;66;1522;-78
2023/12/01 12:21:27;;;;;;;;;;;;;;;;;;2214221;66;1918;-79
2023/12/01 12:24:21;;;;;;;;;;;;;;;;;;2213868;59;1703;-79
2023/12/01 12:26:55;;;;;;;;;;;;;;;;;;2215164;66;1335;-78
2023/12/01 12:29:25;;;;;;;;;;;;;;;;;;2216529;58;2762;-78
2023/12/01 12:31:56;;;;;;;;;;;;;;;;;;2215917;59;1804;-78
2023/12/01 12:34:36;;;;;;;;;;;;;;;;;;2205471;66;1357;-78
2023/12/01 12:37:10;;;;;;;;;;;;;;;;;;2215894;66;1293;-79
2023/12/01 12:39:45;;;;;;;;;;;;;;;;;;2213811;59;1268;-78
2023/12/01 12:42:24;;;;;;;;;;;;;;;;;;2214431;59;1935;-78
2023/12/01 12:44:54;;;;;;;;;;;;;;;;;;2213607;59;2001;-78
2023/12/01 12:47:32;;;;;;;;;;;;;;;;;;2213196;66;1306;-78
2023/12/01 12:50:04;;;;;;;;;;;;;;;;;;2204314;59;1478;-78
2023/12/01 12:52:37;;;;;;;;;;;;;;;;;;2216664;66;1302;-78
2023/12/01 12:55:09;;;;;;;;;;;;;;;;;;2214623;59;1689;-78
2023/12/01 12:57:39;;;;;;;;;;;;;;;;;;2213688;59;1284;-78
2023/12/01 13:00:10;;;;;;;;;;;;;;;;;;2214557;66;1141;-78
2023/12/01 13:02:41;;;;;;;;;;;;;;;;;;2214220;59;2272;-78
2023/12/01 13:05:19;;;;;;;;;;;;;;;;;;2212865;66;1400;-79
2023/12/01 13:07:58;;;;;;;;;;;;;;;;;;2213667;66;1219;-78
2023/12/01 13:10:33;;;;;;;;;;;;;;;;;;2213853;66;1294;-78
2023/12/01 13:13:13;;;;;;;;;;;;;;;;;;2214509;66;1061;-79
2023/12/01 13:15:46;;;;;;;;;;;;;;;;;;2202200;59;1633;-78
2023/12/01 13:18:17;;;;;;;;;;;;;;;;;;2216724;54;2792;-23
2023/12/01 13:20:47;;;;;;;;;;;;;;;;;;2212396;58;2137;-22
2023/12/01 13:23:21;;;;;;;;;;;;;;;;;;2212470;59;2382;-23
2023/12/01 13:25:51;;;;;;;;;;;;;;;;;;2210051;66;2063;-22
2023/12/01 13:28:21;;;;;;;;;;;;;;;;;;2208369;58;3843;-23
2023/12/01 13:30:52;;;;;;;;;;;;;;;;;;2209693;59;3042;-23
2023/12/01 13:33:22;;;;;;;;;;;;;;;;;;2213034;58;2764;-23
2023/12/01 13:35:53;;;;;;;;;;;;;;;;;;2213833;66;2443;-23
2023/12/01 13:38:24;;;;;;;;;;;;;;;;;;2208923;59;2563;-23
2023/12/01 13:40:54;;;;;;;;;;;;;;;;;;2208799;58;1737;-22
2023/12/01 13:43:24;;;;;;;;;;;;;;;;;;2212152;59;1974;-23
2023/12/01 13:45:55;;;;;;;;;;;;;;;;;;2208879;59;2469;-22
2023/12/01 13:48:26;;;;;;;;;;;;;;;;;;2210873;58;2434;-23
2023/12/01 13:50:57;;;;;;;;;;;;;;;;;;2213015;58;1738;-22
2023/12/01 13:53:27;;;;;;;;;;;;;;;;;;2212339;58;2310;-23
2023/12/01 13:55:58;;;;;;;;;;;;;;;;;;2209863;59;1715;-22
2023/12/01 13:58:28;;;;;;;;;;;;;;;;;;2212050;59;2315;-22
2023/12/01 14:00:58;;;;;;;;;;;;;;;;;;2213489;58;2134;-23
2023/12/01 14:03:29;;;;;;;;;;;;;;;;;;2212676;58;2327;-22
2023/12/01 14:05:59;;;;;;;;;;;;;;;;;;2213804;58;2532;-22
2023/12/01 14:08:29;;;;;;;;;;;;;;;;;;2208503;59;2737;-23
2023/12/01 14:11:00;;;;;;;;;;;;;;;;;;2212687;58;2469;-22
2023/12/01 14:13:30;;;;;;;;;;;;;;;;;;2211908;58;2516;-23
2023/12/01 14:16:00;;;;;;;;;;;;;;;;;;2209588;59;2638;-22
2023/12/01 14:18:32;;;;;;;;;;;;;;;;;;2211653;58;2287;-23
2023/12/01 14:21:03;;;;;;;;;;;;;;;;;;2213257;66;1936;-23
2023/12/01 14:23:34;;;;;;;;;;;;;;;;;;2211115;58;2652;-23
2023/12/01 14:26:04;;;;;;;;;;;;;;;;;;2213195;58;1934;-23
2023/12/01 14:28:35;;;;;;;;;;;;;;;;;;2208794;59;2447;-23
2023/12/01 14:31:05;;;;;;;;;;;;;;;;;;2212827;60;2639;-23
2023/12/01 14:33:35;;;;;;;;;;;;;;;;;;2208612;59;2135;-23
2023/12/01 14:36:06;;;;;;;;;;;;;;;;;;2212700;59;1962;-23
2023/12/01 14:38:37;;;;;;;;;;;;;;;;;;2212097;58;2383;-23
2023/12/01 14:41:08;;;;;;;;;;;;;;;;;;2213653;59;2509;-23
2023/12/01 14:43:38;;;;;;;;;;;;;;;;;;2212093;58;2265;-24
2023/12/01 14:46:09;;;;;;;;;;;;;;;;;;2213934;59;1908;-23
2023/12/01 14:48:39;;;;;;;;;;;;;;;;;;2212743;59;2339;-23
2023/12/01 14:51:09;;;;;;;;;;;;;;;;;;2214371;66;1779;-23
2023/12/01 14:53:39;;;;;;;;;;;;;;;;;;2212155;58;2000;-23
2023/12/01 14:56:10;;;;;;;;;;;;;;;;;;2213313;58;2152;-24
2023/12/01 14:58:41;;;;;;;;;;;;;;;;;;2208730;59;1900;-24
2023/12/01 15:01:11;;;;;;;;;;;;;;;;;;2209292;59;2440;-25
2023/12/01 15:03:44;;;;;;;;;;;;;;;;;;2212475;58;2257;-25
2023/12/01 15:06:15;;;;;;;;;;;;;;;;;;2214192;66;2068;-24
2023/12/01 15:08:45;;;;;;;;;;;;;;;;;;2211595;66;2330;-25
2023/12/01 15:11:15;;;;;;;;;;;;;;;;;;2213760;66;1903;-25
2023/12/01 15:13:45;;;;;;;;;;;;;;;;;;2207543;58;2597;-26
2023/12/01 15:16:16;;;;;;;;;;;;;;;;;;2212200;58;2413;-27
2023/12/01 15:18:47;;;;;;;;;;;;;;;;;;2211635;58;2993;-26
2023/12/01 15:21:17;;;;;;;;;;;;;;;;;;2212494;58;2088;-27
2023/12/01 15:23:47;;;;;;;;;;;;;;;;;;2207460;59;2025;-30
2023/12/01 15:26:21;;;;;;;;;;;;;;;;;;2209136;58;1879;-31
2023/12/01 15:28:51;;;;;;;;;;;;;;;;;;2212042;58;2478;-30
2023/12/01 15:31:21;;;;;;;;;;;;;;;;;;2213241;58;2092;-31
2023/12/01 15:33:52;;;;;;;;;;;;;;;;;;2208510;59;2018;-30
2023/12/01 15:36:22;;;;;;;;;;;;;;;;;;2211989;58;1775;-32
2023/12/01 15:38:52;;;;;;;;;;;;;;;;;;2211354;58;1904;-29
2023/12/01 15:41:23;;;;;;;;;;;;;;;;;;2211440;58;1939;-31
2023/12/01 15:43:53;;;;;;;;;;;;;;;;;;2211234;66;1969;-31
2023/12/01 15:46:23;;;;;;;;;;;;;;;;;;2212568;66;1871;-34
2023/12/01 15:48:53;;;;;;;;;;;;;;;;;;2208427;59;1908;-32
2023/12/01 15:51:24;;;;;;;;;;;;;;;;;;2209068;66;1935;-32
2023/12/01 15:53:54;;;;;;;;;;;;;;;;;;2211425;59;2787;-34
2023/12/01 15:56:25;;;;;;;;;;;;;;;;;;2209482;58;2726;-32
2023/12/01 15:58:56;;;;;;;;;;;;;;;;;;2211506;58;1920;-32
2023/12/01 16:01:27;;;;;;;;;;;;;;;;;;2211880;59;2236;-32
2023/12/01 16:03:58;;;;;;;;;;;;;;;;;;2211721;59;2639;-32
2023/12/01 16:06:28;;;;;;;;;;;;;;;;;;2208752;59;1673;-36
2023/12/01 16:08:58;;;;;;;;;;;;;;;;;;2208331;59;1958;-32
2023/12/01 16:11:28;;;;;;;;;;;;;;;;;;2212126;58;1751;-33
2023/12/01 16:14:00;;;;;;;;;;;;;;;;;;2208414;60;2240;-32
2023/12/01 16:16:30;;;;;;;;;;;;;;;;;;2212254;59;1663;-33
2023/12/01 16:19:00;;;;;;;;;;;;;;;;;;2211707;58;1130;-32
2023/12/01 16:21:31;;;;;;;;;;;;;;;;;;2208282;66;1944;-35
2023/12/01 16:24:01;;;;;;;;;;;;;;;;;;2212554;66;1660;-35
2023/12/01 16:26:31;;;;;;;;;;;;;;;;;;2211926;66;1235;-31
2023/12/01 16:29:01;;;;;;;;;;;;;;;;;;2206415;59;2273;-32
2023/12/01 16:31:32;;;;;;;;;;;;;;;;;;2212423;58;1375;-31
2023/12/01 16:34:02;;;;;;;;;;;;;;;;;;2212186;58;1666;-31
2023/12/01 16:36:32;;;;;;;;;;;;;;;;;;2207823;66;1678;-33
2023/12/01 16:39:04;;;;;;;;;;;;;;;;;;2206052;59;1669;-30
2023/12/01 16:41:34;;;;;;;;;;;;;;;;;;2208543;59;1921;-29
2023/12/01 16:44:04;;;;;;;;;;;;;;;;;;2212328;59;1403;-29
2023/12/01 16:46:35;;;;;;;;;;;;;;;;;;2212207;66;1184;-32
2023/12/01 16:49:05;;;;;;;;;;;;;;;;;;2208915;66;1222;-34
2023/12/01 16:51:35;;;;;;;;;;;;;;;;;;2205373;66;1715;-32
2023/12/01 16:54:05;;;;;;;;;;;;;;;;;;2208207;66;1252;-31
2023/12/01 16:56:35;;;;;;;;;;;;;;;;;;2212419;66;1373;-29
2023/12/01 16:59:06;;;;;;;;;;;;;;;;;;2212399;66;1219;-31
2023/12/01 17:01:36;;;;;;;;;;;;;;;;;;2212048;58;2264;-31
2023/12/01 17:04:06;;;;;;;;;;;;;;;;;;2209006;59;2388;-31
2023/12/01 17:06:36;;;;;;;;;;;;;;;;;;2208769;66;1210;-31
2023/12/01 17:09:07;;;;;;;;;;;;;;;;;;2209037;66;1400;-32
2023/12/01 17:11:37;;;;;;;;;;;;;;;;;;2208379;59;1742;-29
2023/12/01 17:14:08;;;;;;;;;;;;;;;;;;2207131;66;2875;-30
2023/12/01 17:16:38;;;;;;;;;;;;;;;;;;2212981;66;1244;-33
2023/12/01 17:19:08;;;;;;;;;;;;;;;;;;2213382;58;1307;-32
2023/12/01 17:21:38;;;;;;;;;;;;;;;;;;2212713;66;1933;-36
2023/12/01 17:24:09;;;;;;;;;;;;;;;;;;2210184;59;2348;-32
2023/12/01 17:26:39;;;;;;;;;;;;;;;;;;2209263;66;1539;-31
2023/12/01 17:29:09;;;;;;;;;;;;;;;;;;2213051;59;2812;-31
2023/12/01 17:31:39;;;;;;;;;;;;;;;;;;2212977;58;1622;-33
2023/12/01 17:34:10;;;;;;;;;;;;;;;;;;2209433;66;1548;-34
2023/12/01 17:36:40;;;;;;;;;;;;;;;;;;2209052;66;1302;-33
2023/12/01 17:39:11;;;;;;;;;;;;;;;;;;2213232;58;1367;-35
2023/12/01 17:41:41;;;;;;;;;;;;;;;;;;2212337;58;1983;-31
2023/12/01 17:44:11;;;;;;;;;;;;;;;;;;2209907;66;1597;-37